Terminal Aerodrome Forecast
Issued by NWS Charleston, WV

Current Version | Previous Version | Graphics & Text | Print | Product List | Glossary On
Versions: 1 2 3 4 5 6 7 8 9 10 11 12 13 14 15 16 17 18 19 20 21 22 23 24 25 26 27 28 29 30
000
FTUS41 KRLX 181700
TAFEKN
TAF
KEKN 181727Z 1818/1918 27013G22KT 3SM -SHSN BR BKN020
     FM181900 27012G20KT 6SM -SHSN BKN035
     FM182200 27010G17KT P6SM SCT030
     FM190600 27006KT P6SM BKN025
     FM191400 23007KT P6SM SCT030
     FM191700 22008G13KT P6SM BKN070=

USA.gov is the U.S. government's official web portal to all federal, state and local government web resources and services.